sensor_id;sensor_type;location;lat;lon;timestamp;P1;durP1;ratioP1;P2;durP2;ratioP2
47812;SDS011;34221;45.296;9.516;2023-04-08T00:00:11;25.45;;;18.90;;
47812;SDS011;34221;45.296;9.516;2023-04-08T00:00:28;26.10;;;18.52;;
47812;SDS011;34221;45.296;9.516;2023-04-08T00:00:43;27.20;;;18.90;;
47812;SDS011;34221;45.296;9.516;2023-04-08T00:00:59;29.43;;;20.13;;
47812;SDS011;34221;45.296;9.516;2023-04-08T00:01:14;27.33;;;19.58;;
47812;SDS011;34221;45.296;9.516;2023-04-08T00:01:29;24.45;;;18.10;;
47812;SDS011;34221;45.296;9.516;2023-04-08T00:01:44;24.77;;;18.20;;
47812;SDS011;34221;45.296;9.516;2023-04-08T00:01:59;26.27;;;18.88;;
47812;SDS011;34221;45.296;9.516;2023-04-08T00:02:14;25.65;;;18.45;;
47812;SDS011;34221;45.296;9.516;2023-04-08T00:02:29;28.65;;;19.13;;
47812;SDS011;34221;45.296;9.516;2023-04-08T00:02:43;30.20;;;19.75;;
47812;SDS011;34221;45.296;9.516;2023-04-08T00:03:00;26.73;;;19.55;;
47812;SDS011;34221;45.296;9.516;2023-04-08T00:03:15;23.80;;;18.55;;
47812;SDS011;34221;45.296;9.516;2023-04-08T00:03:30;26.23;;;18.58;;
47812;SDS011;34221;45.296;9.516;2023-04-08T00:03:45;28.23;;;19.52;;
47812;SDS011;34221;45.296;9.516;2023-04-08T00:04:00;26.33;;;19.70;;
47812;SDS011;34221;45.296;9.516;2023-04-08T00:04:15;26.50;;;19.90;;
47812;SDS011;34221;45.296;9.516;2023-04-08T00:04:30;27.65;;;19.92;;
47812;SDS011;34221;45.296;9.516;2023-04-08T00:04:45;29.67;;;19.70;;
47812;SDS011;34221;45.296;9.516;2023-04-08T00:05:00;29.85;;;19.63;;
47812;SDS011;34221;45.296;9.516;2023-04-08T00:05:15;30.73;;;19.55;;
47812;SDS011;34221;45.296;9.516;2023-04-08T00:05:30;29.48;;;18.98;;
47812;SDS011;34221;45.296;9.516;2023-04-08T00:05:45;25.27;;;18.95;;
47812;SDS011;34221;45.296;9.516;2023-04-08T00:06:00;25.73;;;19.05;;
47812;SDS011;34221;45.296;9.516;2023-04-08T00:06:16;25.85;;;19.27;;
47812;SDS011;34221;45.296;9.516;2023-04-08T00:06:31;24.75;;;19.02;;
47812;SDS011;34221;45.296;9.516;2023-04-08T00:06:46;24.45;;;19.13;;
47812;SDS011;34221;45.296;9.516;2023-04-08T00:07:01;26.13;;;19.55;;
47812;SDS011;34221;45.296;9.516;2023-04-08T00:07:16;27.77;;;20.17;;
47812;SDS011;34221;45.296;9.516;2023-04-08T00:07:31;26.13;;;19.63;;
47812;SDS011;34221;45.296;9.516;2023-04-08T00:07:46;25.00;;;18.65;;
47812;SDS011;34221;45.296;9.516;2023-04-08T00:08:01;25.67;;;19.27;;
47812;SDS011;34221;45.296;9.516;2023-04-08T00:08:36;26.40;;;21.02;;
47812;SDS011;34221;45.296;9.516;2023-04-08T00:08:51;27.58;;;20.58;;
47812;SDS011;34221;45.296;9.516;2023-04-08T00:09:06;30.02;;;20.70;;
47812;SDS011;34221;45.296;9.516;2023-04-08T00:09:21;27.52;;;20.35;;
47812;SDS011;34221;45.296;9.516;2023-04-08T00:09:36;26.23;;;20.08;;
47812;SDS011;34221;45.296;9.516;2023-04-08T00:09:51;30.05;;;19.70;;
47812;SDS011;34221;45.296;9.516;2023-04-08T00:10:07;30.02;;;19.90;;
47812;SDS011;34221;45.296;9.516;2023-04-08T00:10:22;29.73;;;20.55;;
47812;SDS011;34221;45.296;9.516;2023-04-08T00:10:38;30.77;;;20.05;;
47812;SDS011;34221;45.296;9.516;2023-04-08T00:10:53;27.52;;;19.80;;
47812;SDS011;34221;45.296;9.516;2023-04-08T00:11:08;27.83;;;20.55;;
47812;SDS011;34221;45.296;9.516;2023-04-08T00:11:22;28.33;;;20.55;;
47812;SDS011;34221;45.296;9.516;2023-04-08T00:11:37;27.42;;;20.63;;
47812;SDS011;34221;45.296;9.516;2023-04-08T00:11:52;27.15;;;20.48;;
47812;SDS011;34221;45.296;9.516;2023-04-08T00:12:07;27.38;;;20.20;;
47812;SDS011;34221;45.296;9.516;2023-04-08T00:12:22;27.73;;;20.00;;
47812;SDS011;34221;45.296;9.516;2023-04-08T00:12:37;25.80;;;19.27;;
47812;SDS011;34221;45.296;9.516;2023-04-08T00:12:52;25.13;;;19.93;;
47812;SDS011;34221;45.296;9.516;2023-04-08T00:13:07;26.73;;;21.37;;
47812;SDS011;34221;45.296;9.516;2023-04-08T00:13:22;28.35;;;21.45;;
47812;SDS011;34221;45.296;9.516;2023-04-08T00:13:37;28.25;;;20.13;;
47812;SDS011;34221;45.296;9.516;2023-04-08T00:13:52;27.60;;;19.95;;
47812;SDS011;34221;45.296;9.516;2023-04-08T00:14:07;26.45;;;19.77;;
47812;SDS011;34221;45.296;9.516;2023-04-08T00:14:22;24.85;;;19.20;;
47812;SDS011;34221;45.296;9.516;2023-04-08T00:14:37;28.70;;;19.92;;
47812;SDS011;34221;45.296;9.516;2023-04-08T00:14:54;31.77;;;21.25;;
47812;SDS011;34221;45.296;9.516;2023-04-08T00:15:09;28.17;;;20.87;;
47812;SDS011;34221;45.296;9.516;2023-04-08T00:15:24;26.23;;;18.75;;
47812;SDS011;34221;45.296;9.516;2023-04-08T00:15:40;27.08;;;19.00;;
47812;SDS011;34221;45.296;9.516;2023-04-08T00:15:55;25.70;;;18.92;;
47812;SDS011;34221;45.296;9.516;2023-04-08T00:16:11;25.90;;;19.33;;
47812;SDS011;34221;45.296;9.516;2023-04-08T00:16:26;27.10;;;20.23;;
47812;SDS011;34221;45.296;9.516;2023-04-08T00:16:41;26.33;;;19.92;;
47812;SDS011;34221;45.296;9.516;2023-04-08T00:16:56;25.10;;;19.40;;
47812;SDS011;34221;45.296;9.516;2023-04-08T00:17:10;26.85;;;19.42;;
47812;SDS011;34221;45.296;9.516;2023-04-08T00:17:26;27.95;;;20.15;;
47812;SDS011;34221;45.296;9.516;2023-04-08T00:17:40;26.02;;;19.80;;
47812;SDS011;34221;45.296;9.516;2023-04-08T00:17:55;30.38;;;19.67;;
47812;SDS011;34221;45.296;9.516;2023-04-08T00:18:12;31.77;;;20.67;;
47812;SDS011;34221;45.296;9.516;2023-04-08T00:18:30;28.27;;;20.73;;
47812;SDS011;34221;45.296;9.516;2023-04-08T00:18:45;30.15;;;20.17;;
47812;SDS011;34221;45.296;9.516;2023-04-08T00:19:00;34.90;;;20.80;;
47812;SDS011;34221;45.296;9.516;2023-04-08T00:19:15;34.17;;;21.00;;
47812;SDS011;34221;45.296;9.516;2023-04-08T00:19:30;30.85;;;20.60;;
47812;SDS011;34221;45.296;9.516;2023-04-08T00:19:45;30.50;;;20.13;;
47812;SDS011;34221;45.296;9.516;2023-04-08T00:20:00;29.33;;;20.42;;
47812;SDS011;34221;45.296;9.516;2023-04-08T00:20:15;27.10;;;20.30;;
47812;SDS011;34221;45.296;9.516;2023-04-08T00:20:30;25.00;;;19.33;;
47812;SDS011;34221;45.296;9.516;2023-04-08T00:20:45;26.63;;;20.25;;
47812;SDS011;34221;45.296;9.516;2023-04-08T00:21:00;28.85;;;20.85;;
47812;SDS011;34221;45.296;9.516;2023-04-08T00:21:15;28.95;;;20.52;;
47812;SDS011;34221;45.296;9.516;2023-04-08T00:21:33;27.30;;;20.50;;
47812;SDS011;34221;45.296;9.516;2023-04-08T00:21:48;26.52;;;20.40;;
47812;SDS011;34221;45.296;9.516;2023-04-08T00:22:03;26.38;;;19.95;;
47812;SDS011;34221;45.296;9.516;2023-04-08T00:22:18;25.88;;;19.60;;
47812;SDS011;34221;45.296;9.516;2023-04-08T00:22:33;27.25;;;20.15;;
47812;SDS011;34221;45.296;9.516;2023-04-08T00:22:49;28.45;;;19.80;;
47812;SDS011;34221;45.296;9.516;2023-04-08T00:23:04;27.77;;;19.23;;
47812;SDS011;34221;45.296;9.516;2023-04-08T00:23:20;29.15;;;20.23;;
47812;SDS011;34221;45.296;9.516;2023-04-08T00:23:34;30.98;;;21.25;;
47812;SDS011;34221;45.296;9.516;2023-04-08T00:23:49;28.60;;;20.65;;
47812;SDS011;34221;45.296;9.516;2023-04-08T00:24:05;26.17;;;19.73;;
47812;SDS011;34221;45.296;9.516;2023-04-08T00:24:20;26.55;;;20.25;;
47812;SDS011;34221;45.296;9.516;2023-04-08T00:24:35;28.33;;;20.58;;
47812;SDS011;34221;45.296;9.516;2023-04-08T00:24:50;27.92;;;20.13;;
47812;SDS011;34221;45.296;9.516;2023-04-08T00:25:05;26.30;;;19.92;;
47812;SDS011;34221;45.296;9.516;2023-04-08T00:25:22;26.13;;;19.88;;
47812;SDS011;34221;45.296;9.516;2023-04-08T00:25:37;27.07;;;19.63;;
47812;SDS011;34221;45.296;9.516;2023-04-08T00:25:52;27.77;;;19.83;;
47812;SDS011;34221;45.296;9.516;2023-04-08T00:26:07;28.37;;;20.30;;
47812;SDS011;34221;45.296;9.516;2023-04-08T00:26:22;29.85;;;20.60;;
47812;SDS011;34221;45.296;9.516;2023-04-08T00:26:37;30.27;;;20.63;;
47812;SDS011;34221;45.296;9.516;2023-04-08T00:26:52;27.20;;;20.48;;
47812;SDS011;34221;45.296;9.516;2023-04-08T00:27:07;25.92;;;20.33;;
47812;SDS011;34221;45.296;9.516;2023-04-08T00:27:22;26.80;;;20.33;;
47812;SDS011;34221;45.296;9.516;2023-04-08T00:27:38;27.90;;;20.70;;
47812;SDS011;34221;45.296;9.516;2023-04-08T00:27:53;29.67;;;20.98;;
47812;SDS011;34221;45.296;9.516;2023-04-08T00:28:08;28.88;;;20.77;;
47812;SDS011;34221;45.296;9.516;2023-04-08T00:28:23;26.67;;;20.08;;
47812;SDS011;34221;45.296;9.516;2023-04-08T00:28:38;26.73;;;20.65;;
47812;SDS011;34221;45.296;9.516;2023-04-08T00:28:54;26.85;;;20.88;;
47812;SDS011;34221;45.296;9.516;2023-04-08T00:29:09;29.30;;;21.10;;
47812;SDS011;34221;45.296;9.516;2023-04-08T00:29:24;28.67;;;20.77;;
47812;SDS011;34221;45.296;9.516;2023-04-08T00:29:39;25.80;;;19.90;;
47812;SDS011;34221;45.296;9.516;2023-04-08T00:29:54;28.60;;;20.27;;
47812;SDS011;34221;45.296;9.516;2023-04-08T00:30:09;31.05;;;20.42;;
47812;SDS011;34221;45.296;9.516;2023-04-08T00:30:25;28.25;;;20.13;;
47812;SDS011;34221;45.296;9.516;2023-04-08T00:30:43;26.77;;;20.75;;
47812;SDS011;34221;45.296;9.516;2023-04-08T00:30:58;26.70;;;20.67;;
47812;SDS011;34221;45.296;9.516;2023-04-08T00:31:13;26.60;;;20.27;;
47812;SDS011;34221;45.296;9.516;2023-04-08T00:31:29;29.93;;;21.33;;
47812;SDS011;34221;45.296;9.516;2023-04-08T00:31:44;31.10;;;21.38;;
47812;SDS011;34221;45.296;9.516;2023-04-08T00:31:59;29.70;;;20.15;;
47812;SDS011;34221;45.296;9.516;2023-04-08T00:32:14;29.20;;;19.52;;
47812;SDS011;34221;45.296;9.516;2023-04-08T00:32:29;28.13;;;19.93;;
47812;SDS011;34221;45.296;9.516;2023-04-08T00:32:45;27.10;;;20.55;;
47812;SDS011;34221;45.296;9.516;2023-04-08T00:33:01;26.98;;;21.20;;
47812;SDS011;34221;45.296;9.516;2023-04-08T00:33:17;28.10;;;21.48;;
47812;SDS011;34221;45.296;9.516;2023-04-08T00:33:32;28.95;;;21.33;;
47812;SDS011;34221;45.296;9.516;2023-04-08T00:33:47;30.75;;;21.30;;
47812;SDS011;34221;45.296;9.516;2023-04-08T00:34:02;32.10;;;21.45;;
47812;SDS011;34221;45.296;9.516;2023-04-08T00:34:17;30.27;;;21.17;;
47812;SDS011;34221;45.296;9.516;2023-04-08T00:34:32;28.05;;;20.75;;
47812;SDS011;34221;45.296;9.516;2023-04-08T00:34:47;27.20;;;20.20;;
47812;SDS011;34221;45.296;9.516;2023-04-08T00:35:03;27.33;;;20.48;;
47812;SDS011;34221;45.296;9.516;2023-04-08T00:35:18;28.10;;;21.45;;
47812;SDS011;34221;45.296;9.516;2023-04-08T00:35:33;31.30;;;22.15;;
47812;SDS011;34221;45.296;9.516;2023-04-08T00:35:48;30.30;;;21.97;;
47812;SDS011;34221;45.296;9.516;2023-04-08T00:36:04;28.05;;;21.58;;
47812;SDS011;34221;45.296;9.516;2023-04-08T00:36:19;31.42;;;21.75;;
47812;SDS011;34221;45.296;9.516;2023-04-08T00:36:34;31.83;;;22.33;;
47812;SDS011;34221;45.296;9.516;2023-04-08T00:36:49;29.40;;;22.35;;
47812;SDS011;34221;45.296;9.516;2023-04-08T00:37:04;28.17;;;21.55;;
47812;SDS011;34221;45.296;9.516;2023-04-08T00:37:20;27.55;;;20.10;;
47812;SDS011;34221;45.296;9.516;2023-04-08T00:37:36;27.85;;;20.23;;
47812;SDS011;34221;45.296;9.516;2023-04-08T00:37:51;26.48;;;20.27;;
47812;SDS011;34221;45.296;9.516;2023-04-08T00:38:06;27.58;;;20.55;;
47812;SDS011;34221;45.296;9.516;2023-04-08T00:38:21;29.30;;;20.38;;
47812;SDS011;34221;45.296;9.516;2023-04-08T00:38:36;29.50;;;20.65;;
47812;SDS011;34221;45.296;9.516;2023-04-08T00:38:51;30.00;;;21.27;;
47812;SDS011;34221;45.296;9.516;2023-04-08T00:39:06;29.23;;;20.73;;
47812;SDS011;34221;45.296;9.516;2023-04-08T00:39:22;28.88;;;21.10;;
47812;SDS011;34221;45.296;9.516;2023-04-08T00:39:36;27.67;;;21.23;;
47812;SDS011;34221;45.296;9.516;2023-04-08T00:39:51;27.53;;;21.30;;
47812;SDS011;34221;45.296;9.516;2023-04-08T00:40:07;28.50;;;21.17;;
47812;SDS011;34221;45.296;9.516;2023-04-08T00:40:23;35.85;;;21.63;;
47812;SDS011;34221;45.296;9.516;2023-04-08T00:40:37;36.97;;;21.30;;
47812;SDS011;34221;45.296;9.516;2023-04-08T00:40:52;30.27;;;21.40;;
47812;SDS011;34221;45.296;9.516;2023-04-08T00:41:09;27.95;;;21.05;;
47812;SDS011;34221;45.296;9.516;2023-04-08T00:41:24;27.48;;;20.77;;
47812;SDS011;34221;45.296;9.516;2023-04-08T00:41:39;28.25;;;20.85;;
47812;SDS011;34221;45.296;9.516;2023-04-08T00:41:54;29.83;;;20.83;;
47812;SDS011;34221;45.296;9.516;2023-04-08T00:42:11;29.83;;;21.48;;
47812;SDS011;34221;45.296;9.516;2023-04-08T00:42:26;28.58;;;22.10;;
47812;SDS011;34221;45.296;9.516;2023-04-08T00:42:45;31.17;;;21.80;;
47812;SDS011;34221;45.296;9.516;2023-04-08T00:43:00;28.98;;;20.65;;
47812;SDS011;34221;45.296;9.516;2023-04-08T00:43:15;27.40;;;20.85;;
47812;SDS011;34221;45.296;9.516;2023-04-08T00:43:33;28.67;;;20.40;;
47812;SDS011;34221;45.296;9.516;2023-04-08T00:43:49;32.17;;;21.55;;
47812;SDS011;34221;45.296;9.516;2023-04-08T00:44:03;35.80;;;22.58;;
47812;SDS011;34221;45.296;9.516;2023-04-08T00:44:19;34.60;;;21.60;;
47812;SDS011;34221;45.296;9.516;2023-04-08T00:44:34;30.73;;;21.27;;
47812;SDS011;34221;45.296;9.516;2023-04-08T00:44:49;27.67;;;21.23;;
47812;SDS011;34221;45.296;9.516;2023-04-08T00:45:05;28.60;;;21.33;;
47812;SDS011;34221;45.296;9.516;2023-04-08T00:45:21;29.50;;;21.33;;
47812;SDS011;34221;45.296;9.516;2023-04-08T00:45:36;32.50;;;22.25;;
47812;SDS011;34221;45.296;9.516;2023-04-08T00:45:52;33.88;;;22.45;;
47812;SDS011;34221;45.296;9.516;2023-04-08T00:46:07;32.55;;;21.83;;
47812;SDS011;34221;45.296;9.516;2023-04-08T00:46:23;30.55;;;21.05;;
47812;SDS011;34221;45.296;9.516;2023-04-08T00:46:38;27.20;;;20.33;;
47812;SDS011;34221;45.296;9.516;2023-04-08T00:46:54;26.88;;;20.13;;
47812;SDS011;34221;45.296;9.516;2023-04-08T00:47:12;28.15;;;20.75;;
47812;SDS011;34221;45.296;9.516;2023-04-08T00:47:28;28.55;;;21.17;;
47812;SDS011;34221;45.296;9.516;2023-04-08T00:47:44;28.45;;;20.77;;
47812;SDS011;34221;45.296;9.516;2023-04-08T00:48:01;27.65;;;20.48;;
47812;SDS011;34221;45.296;9.516;2023-04-08T00:48:17;28.90;;;21.02;;
47812;SDS011;34221;45.296;9.516;2023-04-08T00:48:32;31.55;;;21.75;;
47812;SDS011;34221;45.296;9.516;2023-04-08T00:48:47;31.80;;;21.67;;
47812;SDS011;34221;45.296;9.516;2023-04-08T00:49:02;28.30;;;20.98;;
47812;SDS011;34221;45.296;9.516;2023-04-08T00:49:18;27.17;;;20.98;;
47812;SDS011;34221;45.296;9.516;2023-04-08T00:49:33;27.40;;;21.02;;
47812;SDS011;34221;45.296;9.516;2023-04-08T00:49:48;28.10;;;20.80;;
47812;SDS011;34221;45.296;9.516;2023-04-08T00:50:05;28.30;;;20.42;;
47812;SDS011;34221;45.296;9.516;2023-04-08T00:50:23;29.70;;;20.77;;
47812;SDS011;34221;45.296;9.516;2023-04-08T00:50:38;29.23;;;21.20;;
47812;SDS011;34221;45.296;9.516;2023-04-08T00:50:53;29.10;;;22.15;;
47812;SDS011;34221;45.296;9.516;2023-04-08T00:51:08;29.08;;;21.67;;
47812;SDS011;34221;45.296;9.516;2023-04-08T00:51:24;27.92;;;20.92;;
47812;SDS011;34221;45.296;9.516;2023-04-08T00:51:39;28.33;;;21.23;;
47812;SDS011;34221;45.296;9.516;2023-04-08T00:51:54;29.23;;;20.77;;
47812;SDS011;34221;45.296;9.516;2023-04-08T00:52:09;28.75;;;20.75;;
47812;SDS011;34221;45.296;9.516;2023-04-08T00:52:24;27.95;;;21.38;;
47812;SDS011;34221;45.296;9.516;2023-04-08T00:52:40;29.50;;;21.95;;
47812;SDS011;34221;45.296;9.516;2023-04-08T00:52:54;29.88;;;22.05;;
47812;SDS011;34221;45.296;9.516;2023-04-08T00:53:09;30.70;;;21.85;;
47812;SDS011;34221;45.296;9.516;2023-04-08T00:53:24;31.25;;;21.98;;
47812;SDS011;34221;45.296;9.516;2023-04-08T00:53:39;29.65;;;22.02;;
47812;SDS011;34221;45.296;9.516;2023-04-08T00:53:54;30.38;;;22.58;;
47812;SDS011;34221;45.296;9.516;2023-04-08T00:54:09;30.80;;;22.42;;
47812;SDS011;34221;45.296;9.516;2023-04-08T00:54:24;28.70;;;21.65;;
47812;SDS011;34221;45.296;9.516;2023-04-08T00:54:40;30.08;;;21.98;;
47812;SDS011;34221;45.296;9.516;2023-04-08T00:54:55;30.92;;;21.75;;
47812;SDS011;34221;45.296;9.516;2023-04-08T00:55:10;28.00;;;20.45;;
47812;SDS011;34221;45.296;9.516;2023-04-08T00:55:25;27.73;;;20.20;;
47812;SDS011;34221;45.296;9.516;2023-04-08T00:55:40;29.38;;;21.55;;
47812;SDS011;34221;45.296;9.516;2023-04-08T00:55:55;30.67;;;21.98;;
47812;SDS011;34221;45.296;9.516;2023-04-08T00:56:11;30.30;;;21.65;;
47812;SDS011;34221;45.296;9.516;2023-04-08T00:56:26;27.52;;;20.98;;
47812;SDS011;34221;45.296;9.516;2023-04-08T00:56:43;27.73;;;21.23;;
47812;SDS011;34221;45.296;9.516;2023-04-08T00:56:58;29.92;;;22.48;;
47812;SDS011;34221;45.296;9.516;2023-04-08T00:57:14;28.70;;;21.92;;
47812;SDS011;34221;45.296;9.516;2023-04-08T00:57:31;28.02;;;21.15;;
47812;SDS011;34221;45.296;9.516;2023-04-08T00:57:46;28.65;;;20.92;;
47812;SDS011;34221;45.296;9.516;2023-04-08T00:58:01;27.73;;;21.08;;
47812;SDS011;34221;45.296;9.516;2023-04-08T00:58:16;29.43;;;21.50;;
47812;SDS011;34221;45.296;9.516;2023-04-08T00:58:31;29.80;;;21.48;;
47812;SDS011;34221;45.296;9.516;2023-04-08T00:58:46;27.48;;;21.52;;
47812;SDS011;34221;45.296;9.516;2023-04-08T00:59:02;27.48;;;21.52;;
47812;SDS011;34221;45.296;9.516;2023-04-08T00:59:17;28.23;;;21.23;;
47812;SDS011;34221;45.296;9.516;2023-04-08T00:59:32;28.30;;;21.73;;
47812;SDS011;34221;45.296;9.516;2023-04-08T00:59:49;29.48;;;22.40;;
47812;SDS011;34221;45.296;9.516;2023-04-08T01:00:04;27.75;;;21.15;;
47812;SDS011;34221;45.296;9.516;2023-04-08T01:00:20;27.45;;;20.80;;
47812;SDS011;34221;45.296;9.516;2023-04-08T01:00:35;32.03;;;21.95;;
47812;SDS011;34221;45.296;9.516;2023-04-08T01:01:09;30.02;;;21.45;;
47812;SDS011;34221;45.296;9.516;2023-04-08T01:01:54;27.98;;;21.33;;
47812;SDS011;34221;45.296;9.516;2023-04-08T01:03:13;27.95;;;21.42;;
47812;SDS011;34221;45.296;9.516;2023-04-08T01:03:41;26.38;;;21.13;;
47812;SDS011;34221;45.296;9.516;2023-04-08T01:05:14;30.45;;;22.02;;
47812;SDS011;34221;45.296;9.516;2023-04-08T01:07:45;30.08;;;22.90;;
47812;SDS011;34221;45.296;9.516;2023-04-08T01:08:04;28.63;;;21.52;;
47812;SDS011;34221;45.296;9.516;2023-04-08T01:08:22;29.23;;;21.73;;
47812;SDS011;34221;45.296;9.516;2023-04-08T01:08:40;28.75;;;21.05;;
47812;SDS011;34221;45.296;9.516;2023-04-08T01:08:58;28.60;;;20.77;;
47812;SDS011;34221;45.296;9.516;2023-04-08T01:09:14;30.33;;;21.88;;
47812;SDS011;34221;45.296;9.516;2023-04-08T01:09:34;30.98;;;22.33;;
47812;SDS011;34221;45.296;9.516;2023-04-08T01:09:53;30.45;;;21.30;;
47812;SDS011;34221;45.296;9.516;2023-04-08T01:10:12;29.05;;;22.17;;
47812;SDS011;34221;45.296;9.516;2023-04-08T01:10:36;27.45;;;21.65;;
47812;SDS011;34221;45.296;9.516;2023-04-08T01:10:57;27.73;;;21.50;;
47812;SDS011;34221;45.296;9.516;2023-04-08T01:11:16;26.48;;;20.88;;
47812;SDS011;34221;45.296;9.516;2023-04-08T01:11:32;26.40;;;20.85;;
47812;SDS011;34221;45.296;9.516;2023-04-08T01:11:49;28.30;;;20.98;;
47812;SDS011;34221;45.296;9.516;2023-04-08T01:12:06;28.90;;;21.33;;
47812;SDS011;34221;45.296;9.516;2023-04-08T01:12:26;27.58;;;21.65;;
47812;SDS011;34221;45.296;9.516;2023-04-08T01:13:01;27.67;;;20.92;;
47812;SDS011;34221;45.296;9.516;2023-04-08T01:13:23;26.77;;;21.27;;
47812;SDS011;34221;45.296;9.516;2023-04-08T01:13:41;28.10;;;21.13;;
47812;SDS011;34221;45.296;9.516;2023-04-08T01:13:58;31.00;;;22.77;;
47812;SDS011;34221;45.296;9.516;2023-04-08T01:14:20;29.33;;;22.10;;
47812;SDS011;34221;45.296;9.516;2023-04-08T01:14:41;29.58;;;21.42;;
47812;SDS011;34221;45.296;9.516;2023-04-08T01:15:00;28.88;;;22.13;;
47812;SDS011;34221;45.296;9.516;2023-04-08T01:15:19;29.63;;;21.95;;
47812;SDS011;34221;45.296;9.516;2023-04-08T01:15:35;30.33;;;21.70;;
47812;SDS011;34221;45.296;9.516;2023-04-08T01:15:52;31.05;;;22.77;;
47812;SDS011;34221;45.296;9.516;2023-04-08T01:16:10;27.73;;;22.25;;
47812;SDS011;34221;45.296;9.516;2023-04-08T01:16:27;28.08;;;21.55;;
47812;SDS011;34221;45.296;9.516;2023-04-08T01:16:42;28.73;;;21.95;;
47812;SDS011;34221;45.296;9.516;2023-04-08T01:16:59;29.40;;;22.67;;
47812;SDS011;34221;45.296;9.516;2023-04-08T01:17:15;28.80;;;22.45;;
47812;SDS011;34221;45.296;9.516;2023-04-08T01:17:33;29.73;;;21.42;;
47812;SDS011;34221;45.296;9.516;2023-04-08T01:17:52;29.92;;;21.25;;
47812;SDS011;34221;45.296;9.516;2023-04-08T01:18:11;28.63;;;21.23;;
47812;SDS011;34221;45.296;9.516;2023-04-08T01:18:28;28.55;;;21.52;;
47812;SDS011;34221;45.296;9.516;2023-04-08T01:18:44;28.73;;;21.90;;
47812;SDS011;34221;45.296;9.516;2023-04-08T01:19:01;29.27;;;22.25;;
47812;SDS011;34221;45.296;9.516;2023-04-08T01:19:21;29.75;;;22.30;;
47812;SDS011;34221;45.296;9.516;2023-04-08T01:19:43;28.95;;;22.20;;
47812;SDS011;34221;45.296;9.516;2023-04-08T01:20:01;29.52;;;21.77;;
47812;SDS011;34221;45.296;9.516;2023-04-08T01:20:17;30.38;;;22.27;;
47812;SDS011;34221;45.296;9.516;2023-04-08T01:20:33;29.77;;;21.95;;
47812;SDS011;34221;45.296;9.516;2023-04-08T01:20:49;28.58;;;21.25;;
47812;SDS011;34221;45.296;9.516;2023-04-08T01:21:04;28.48;;;20.90;;
47812;SDS011;34221;45.296;9.516;2023-04-08T01:21:21;31.23;;;22.08;;
47812;SDS011;34221;45.296;9.516;2023-04-08T01:21:37;32.35;;;23.05;;
47812;SDS011;34221;45.296;9.516;2023-04-08T01:21:52;30.65;;;22.38;;
47812;SDS011;34221;45.296;9.516;2023-04-08T01:23:39;29.20;;;21.60;;
47812;SDS011;34221;45.296;9.516;2023-04-08T01:24:25;28.20;;;21.23;;
47812;SDS011;34221;45.296;9.516;2023-04-08T01:24:44;29.15;;;21.50;;
47812;SDS011;34221;45.296;9.516;2023-04-08T01:25:04;29.35;;;22.25;;
47812;SDS011;34221;45.296;9.516;2023-04-08T01:25:29;28.38;;;22.15;;
47812;SDS011;34221;45.296;9.516;2023-04-08T01:25:50;30.15;;;22.90;;
47812;SDS011;34221;45.296;9.516;2023-04-08T01:26:10;31.35;;;22.27;;
47812;SDS011;34221;45.296;9.516;2023-04-08T01:26:35;29.95;;;22.10;;
47812;SDS011;34221;45.296;9.516;2023-04-08T01:26:50;28.52;;;21.80;;
47812;SDS011;34221;45.296;9.516;2023-04-08T01:27:06;28.38;;;21.80;;
47812;SDS011;34221;45.296;9.516;2023-04-08T01:27:23;30.38;;;22.70;;
47812;SDS011;34221;45.296;9.516;2023-04-08T01:27:42;30.80;;;22.55;;
47812;SDS011;34221;45.296;9.516;2023-04-08T01:27:58;29.92;;;22.80;;
47812;SDS011;34221;45.296;9.516;2023-04-08T01:28:15;30.55;;;22.88;;
47812;SDS011;34221;45.296;9.516;2023-04-08T01:28:33;29.48;;;21.77;;
47812;SDS011;34221;45.296;9.516;2023-04-08T01:28:49;28.50;;;21.58;;
47812;SDS011;34221;45.296;9.516;2023-04-08T01:29:08;29.00;;;22.40;;
47812;SDS011;34221;45.296;9.516;2023-04-08T01:29:26;28.15;;;22.35;;
47812;SDS011;34221;45.296;9.516;2023-04-08T01:29:43;29.30;;;22.42;;
47812;SDS011;34221;45.296;9.516;2023-04-08T01:30:01;30.02;;;22.65;;
47812;SDS011;34221;45.296;9.516;2023-04-08T01:30:18;28.55;;;21.83;;
47812;SDS011;34221;45.296;9.516;2023-04-08T01:30:34;27.85;;;21.75;;
47812;SDS011;34221;45.296;9.516;2023-04-08T01:30:53;35.22;;;22.92;;
47812;SDS011;34221;45.296;9.516;2023-04-08T01:31:14;32.08;;;23.50;;
47812;SDS011;34221;45.296;9.516;2023-04-08T01:31:30;30.65;;;23.17;;
47812;SDS011;34221;45.296;9.516;2023-04-08T01:31:45;29.38;;;22.25;;
47812;SDS011;34221;45.296;9.516;2023-04-08T01:32:02;29.65;;;22.48;;
47812;SDS011;34221;45.296;9.516;2023-04-08T01:32:19;30.58;;;22.77;;
47812;SDS011;34221;45.296;9.516;2023-04-08T01:32:35;32.22;;;23.23;;
47812;SDS011;34221;45.296;9.516;2023-04-08T01:32:52;31.10;;;22.92;;
47812;SDS011;34221;45.296;9.516;2023-04-08T01:33:10;30.02;;;22.40;;
47812;SDS011;34221;45.296;9.516;2023-04-08T01:33:27;31.58;;;22.83;;
47812;SDS011;34221;45.296;9.516;2023-04-08T01:33:44;32.35;;;23.38;;
47812;SDS011;34221;45.296;9.516;2023-04-08T01:34:02;33.17;;;23.60;;
47812;SDS011;34221;45.296;9.516;2023-04-08T01:34:19;35.97;;;23.38;;
47812;SDS011;34221;45.296;9.516;2023-04-08T01:34:36;34.00;;;22.88;;
47812;SDS011;34221;45.296;9.516;2023-04-08T01:34:53;31.27;;;22.63;;
47812;SDS011;34221;45.296;9.516;2023-04-08T01:35:09;29.52;;;22.48;;
47812;SDS011;34221;45.296;9.516;2023-04-08T01:35:24;29.13;;;22.88;;
47812;SDS011;34221;45.296;9.516;2023-04-08T01:35:39;29.15;;;22.33;;
47812;SDS011;34221;45.296;9.516;2023-04-08T01:35:55;31.80;;;23.33;;
47812;SDS011;34221;45.296;9.516;2023-04-08T01:36:12;32.35;;;24.00;;
47812;SDS011;34221;45.296;9.516;2023-04-08T01:36:28;31.10;;;23.35;;
47812;SDS011;34221;45.296;9.516;2023-04-08T01:36:46;31.92;;;23.15;;
47812;SDS011;34221;45.296;9.516;2023-04-08T01:37:02;28.77;;;21.77;;
47812;SDS011;34221;45.296;9.516;2023-04-08T01:37:19;29.70;;;21.80;;
47812;SDS011;34221;45.296;9.516;2023-04-08T01:37:36;32.38;;;23.60;;
47812;SDS011;34221;45.296;9.516;2023-04-08T01:37:53;30.63;;;23.38;;
47812;SDS011;34221;45.296;9.516;2023-04-08T01:38:12;31.27;;;23.13;;
47812;SDS011;34221;45.296;9.516;2023-04-08T01:38:31;32.10;;;23.73;;
47812;SDS011;34221;45.296;9.516;2023-04-08T01:38:47;30.35;;;22.58;;
47812;SDS011;34221;45.296;9.516;2023-04-08T01:39:03;33.33;;;23.52;;
47812;SDS011;34221;45.296;9.516;2023-04-08T01:39:20;32.25;;;23.75;;
47812;SDS011;34221;45.296;9.516;2023-04-08T01:39:36;32.78;;;23.92;;
47812;SDS011;34221;45.296;9.516;2023-04-08T01:39:54;31.52;;;22.77;;
47812;SDS011;34221;45.296;9.516;2023-04-08T01:40:10;30.15;;;22.58;;
47812;SDS011;34221;45.296;9.516;2023-04-08T01:40:25;33.10;;;24.02;;
47812;SDS011;34221;45.296;9.516;2023-04-08T01:40:40;31.40;;;23.33;;
47812;SDS011;34221;45.296;9.516;2023-04-08T01:40:56;31.67;;;22.92;;
47812;SDS011;34221;45.296;9.516;2023-04-08T01:41:12;29.67;;;22.20;;
47812;SDS011;34221;45.296;9.516;2023-04-08T01:41:27;27.50;;;22.10;;
47812;SDS011;34221;45.296;9.516;2023-04-08T01:41:42;30.98;;;23.17;;
47812;SDS011;34221;45.296;9.516;2023-04-08T01:41:58;32.45;;;23.20;;